x

South Brooks (46132) Wave Buoy

5:00 - Tue 28th Jul 2015 All times are PDT. -7 hours from GMT.

  • Sig Wave height 5.2ft
  • Peak Period 9s
  • Wind
    9mph, 11mph gusts
  • Sea Temp 64°f
  • Air Temp 63°f
  • Sea Pressure 1025.9mb
  • South Brooks
  • South Brooks

More Historic Weather Station data

Upgrade to MSW Pro to gain access to the past 30 days of data for over 8000 Wavebouys and Weather Stations around the globe.

Join Pro

Comparision Forecast

View Surf forecast
   
mar. 07/28 5:00 5ft 9s 9 11 mph 1025.9mb 64f 63f
4:00 5.5ft 10s 7 9 mph 1026.3mb 64f 62f
3:00 5ft 10s 7
mph
1026.2mb 64f 62f
2:00 5ft 18s 7 9 mph 1026.5mb 64f 62f
1:00 5ft 10s 4 7 mph 1026.3mb 64f 61f
12:00 5ft 10s 7 9 mph 1026.4mb 63f 61f
11:00 5ft 9s 7 9 mph 1026.1mb 63f 61f
10:00 5ft 10s 7 9 mph 1026.1mb 63f 61f
9:00 5ft 10s 7 9 mph 1026.1mb 62f 62f
8:00 5ft 8s 9 11 mph 1025.9mb 62f 61f
7:00 5ft 10s 7 11 mph 1025.7mb 62f 61f
6:00 4.5ft 10s 2 4 mph 1025.5mb 62f 62f
5:00 4.5ft 10s 4 7 mph 1025.4mb 62f 61f
4:00 4.5ft 10s 7 9 mph 1025.5mb 62f 61f
3:00 5ft 8s 7
mph
1025.4mb 62f 61f
2:00 4.5ft 9s 7 9 mph 1025.2mb 62f 61f
1:00 4.5ft 8s 7
mph
1025mb 63f 61f
12:00 4.5ft 9s 9
mph
1024.9mb 63f 62f
lun. 07/27 11:00 4.5ft 10s 9
mph
1024.7mb 63f 62f
10:00 4ft 8s 7 9 mph 1024.7mb 63f 61f
9:00 4ft 8s 9 11 mph 1024.6mb 63f 62f
8:00 3.5ft 9s 9 11 mph 1024.9mb 63f 62f
7:00 3.5ft 18s 11 13 mph 1024.8mb 63f 62f
6:00 3.5ft 8s 9 11 mph 1024.6mb 63f 63f
5:00 3.5ft 8s 11 13 mph 1024.5mb 63f 62f
3:00 3.5ft 8s 11 13 mph 1024.2mb 63f 61f
2:00 4ft 9s 7 9 mph 1024.1mb 62f 62f
1:00 4ft 18s 9 11 mph 1023.9mb 62f 61f
12:00 4ft 9s 11
mph
1023.6mb 62f 61f
11:00 4ft 8s 7 9 mph 1023.3mb 62f 60f
10:00 4ft 9s 4 7 mph 1022.8mb 62f 60f
8:00 4.5ft 8s 18 20 mph 1022.6mb 61f 59f
7:00 4.5ft 9s 18 22 mph 1022.1mb 61f 59f
6:00 4.5ft 9s 13
mph
1021.8mb 61f 60f
5:00 4.5ft 8s 16 18 mph 1021.5mb 61f 61f
4:00 4.5ft 9s 18 20 mph 1021.3mb 61f 60f
3:00 5ft 9s 18 20 mph 1021.1mb 62f 60f
2:00 5ft 9s 18 20 mph 1020.8mb 62f 60f
1:00 5ft 9s 18 22 mph 1020.8mb 62f 60f
12:00 5ft 8s 18 22 mph 1020.6mb 62f 60f
dim. 07/26 11:00 6ft 10s 22 25 mph 1020.3mb 62f 61f
8:00 5.5ft 10s 22 27 mph 1019.9mb 62f 61f
7:00 5.5ft 10s 22 27 mph 1019.7mb 62f 61f
6:00 5ft 10s 22 27 mph 1019.8mb 62f 61f
5:00 5ft 9s 22 27 mph 1019.6mb 62f 61f
4:00 5ft 8s 20 25 mph 1019.6mb 62f 61f
3:00 5.5ft 9s 18 20 mph 1019.6mb 63f 61f
2:00 5.5ft 9s 13 18 mph 1019.8mb 63f 61f
1:00 6ft 9s 13 16 mph 1019.8mb 62f 61f
12:00 5ft 10s 13 16 mph 1019.6mb 62f 60f
11:00 5.5ft 10s 13 18 mph 1019.2mb 62f 60f
10:00 5.5ft 10s 13 18 mph 1018.7mb 62f 60f
9:00 5ft 10s 13 16 mph 1018.4mb 62f 60f
8:00 5.5ft 10s 13 16 mph 1017.9mb 62f 59f
7:00 5ft 10s 13 18 mph 1017.7mb 62f 59f
6:00 5ft 10s 9 11 mph 1017.4mb 62f 59f
5:00 5.5ft 10s 4
mph
1017.1mb 62f 60f
4:00 6ft 10s 2
mph
1016.8mb 62f 60f
3:00 6ft 10s 2 4 mph 1016.9mb 62f 59f
2:00 6ft 12s 2 4 mph 1017mb 62f 60f
1:00 6ft 11s 9 13 mph 1017.2mb 62f 60f
12:00 6.5ft 10s 11 16 mph 1017.1mb 62f 60f
sam. 07/25 11:00 7.5ft 10s 4 7 mph 1017.1mb 63f 60f
10:00 7ft 11s 9 13 mph 1017.2mb 62f 61f
9:00 7ft 10s 9 13 mph 1017mb 63f 61f
8:00 7.5ft 11s 9 11 mph 1016.8mb 63f 61f
7:00 7ft 10s 9 11 mph 1016.9mb 63f 61f
6:00 7ft 11s 7 9 mph 1017.1mb 63f 61f
5:00 7ft 10s 7 9 mph 1017.4mb 63f 61f
4:00 7ft 11s 11 13 mph 1017.4mb 62f 59f
3:00 7ft 11s 11 13 mph 1017.5mb 62f 59f
2:00 6.5ft 11s 11 16 mph 1017.3mb 62f 59f
1:00 6.5ft 11s 11 16 mph 1017.2mb 61f 60f
12:00 7ft 12s 9 11 mph 1016.9mb 61f 59f
11:00 7ft 11s 11 13 mph 1016.6mb 61f 59f
10:00 7ft 12s 7 9 mph 1016.4mb 61f 60f
9:00 7ft 14s 4
mph
1016.1mb 62f 59f
8:00 8ft 12s 9 13 mph 1015.8mb 62f 59f
7:00 8ft 12s 4 7 mph 1015.8mb 61f 60f
6:00 8ft 12s 7 9 mph 1015.6mb 61f 58f
5:00 8.5ft 11s 7 9 mph 1015.7mb 62f 60f
4:00 8ft 11s 2
mph
1015.9mb 62f 59f
3:00 7.5ft 12s 7 9 mph 1016.2mb 62f 58f
2:00 7ft 10s 7 9 mph 1016.3mb 62f 60f